Time;durP1;ratioP1;P1;durP2;ratioP2;P2;SDS_P1;SDS_P2;PMS_P1;PMS_P2;Temp;Humidity;BMP_temperature;BMP_pressure;BME280_temperature;BME280_humidity;BME280_pressure;Samples;Min_cycle;Max_cycle;Signal;HPM_P1;HPM_P2
2023/03/11 00:03:26;;;;;;;18.30;13.03;;;8.60;99.90;;;;;;10126038;29;20262;-85
2023/03/11 00:08:29;;;;;;;20.10;12.60;;;8.00;99.90;;;;;;10105077;29;20248;-84
2023/03/11 00:13:32;;;;;;;17.53;12.57;;;7.70;99.90;;;;;;10131373;29;20741;-83
2023/03/11 00:18:35;;;;;;;16.97;12.17;;;7.70;99.90;;;;;;10131043;29;20747;-84
2023/03/11 00:23:37;;;;;;;19.97;11.80;;;7.60;99.90;;;;;;10136259;29;20265;-84
2023/03/11 00:28:40;;;;;;;21.93;13.30;;;7.40;99.90;;;;;;10123723;29;20258;-84
2023/03/11 00:33:44;;;;;;;20.67;14.20;;;7.30;99.90;;;;;;10099796;29;20275;-84
2023/03/11 00:38:47;;;;;;;18.20;12.03;;;7.20;99.90;;;;;;10091638;29;20665;-84
2023/03/11 00:43:50;;;;;;;24.33;13.33;;;7.20;99.90;;;;;;10094267;29;20339;-84
2023/03/11 00:48:52;;;;;;;20.87;13.77;;;7.20;99.90;;;;;;10100016;29;20239;-84
2023/03/11 00:53:55;;;;;;;18.93;11.90;;;7.30;99.90;;;;;;10098697;29;20333;-84
2023/03/11 00:58:58;;;;;;;16.20;10.60;;;8.20;99.90;;;;;;10098641;29;20250;-84
2023/03/11 01:04:00;;;;;;;13.67;10.10;;;8.40;99.90;;;;;;10102329;29;20269;-84
2023/03/11 01:09:03;;;;;;;14.23;9.40;;;8.40;99.90;;;;;;10112617;29;20246;-84
2023/03/11 01:14:06;;;;;;;15.60;10.07;;;8.30;99.90;;;;;;10097194;29;20253;-84
2023/03/11 01:19:09;;;;;;;13.53;9.60;;;8.70;99.90;;;;;;10104442;29;20719;-84
2023/03/11 01:24:11;;;;;;;14.27;10.90;;;8.90;99.90;;;;;;10087951;29;20269;-84
2023/03/11 01:29:14;;;;;;;13.50;9.23;;;8.80;99.90;;;;;;10108876;29;20360;-84
2023/03/11 01:34:16;;;;;;;11.43;9.57;;;9.00;99.90;;;;;;10094877;29;20251;-84
2023/03/11 01:39:19;;;;;;;13.40;10.30;;;9.10;99.90;;;;;;10108396;29;20252;-84
2023/03/11 01:44:22;;;;;;;14.20;10.47;;;9.20;99.90;;;;;;10097931;29;20659;-85
2023/03/11 01:49:25;;;;;;;12.50;9.30;;;9.80;99.90;;;;;;10102742;29;20250;-84
2023/03/11 01:54:31;;;;;;;14.87;10.50;;;9.90;99.90;;;;;;10100526;29;20664;-84
2023/03/11 01:59:38;;;;;;;13.97;11.07;;;10.30;99.90;;;;;;10119848;29;20310;-84
2023/03/11 02:04:41;;;;;;;17.57;9.87;;;10.20;99.90;;;;;;10119936;29;20347;-84
2023/03/11 02:09:44;;;;;;;13.33;8.93;;;10.60;99.90;;;;;;10102983;29;20248;-84
2023/03/11 02:14:50;;;;;;;15.57;9.60;;;9.90;99.90;;;;;;10116550;29;20243;-84
2023/03/11 02:20:06;;;;;;;14.70;9.57;;;9.90;99.90;;;;;;10108143;29;20273;-84
2023/03/11 02:25:50;;;;;;;16.30;10.63;;;10.70;99.90;;;;;;10120776;29;20263;-84
2023/03/11 02:30:55;;;;;;;11.83;8.33;;;11.50;99.90;;;;;;10102940;29;20232;-84
2023/03/11 02:35:58;;;;;;;15.57;10.43;;;11.80;99.90;;;;;;10092167;29;20266;-84
2023/03/11 02:41:01;;;;;;;15.13;9.60;;;11.80;99.90;;;;;;10108159;29;20307;-84
2023/03/11 02:46:08;;;;;;;12.83;8.83;;;11.70;99.90;;;;;;10107654;29;20309;-84
2023/03/11 02:51:12;;;;;;;12.90;9.60;;;12.20;99.90;;;;;;10095390;29;20232;-84
2023/03/11 02:56:15;;;;;;;12.07;9.20;;;12.10;99.90;;;;;;10098444;29;20278;-84
2023/03/11 03:01:18;;;;;;;13.00;9.40;;;12.00;99.90;;;;;;10119545;29;20718;-84
2023/03/11 03:06:23;;;;;;;11.23;8.93;;;12.30;99.90;;;;;;10108835;29;20640;-84
2023/03/11 03:11:27;;;;;;;11.33;8.77;;;12.40;99.90;;;;;;10114988;29;20272;-84
2023/03/11 03:16:30;;;;;;;8.47;6.13;;;13.00;99.90;;;;;;10110887;29;20262;-84
2023/03/11 03:21:32;;;;;;;30.70;18.97;;;12.90;99.90;;;;;;10103765;29;20346;-84
2023/03/11 03:26:36;;;;;;;27.73;17.07;;;10.70;99.90;;;;;;10107854;29;20236;-84
2023/03/11 03:31:41;;;;;;;27.47;17.30;;;8.50;99.90;;;;;;10104813;29;20808;-84
2023/03/11 03:36:44;;;;;;;31.47;19.73;;;7.30;99.90;;;;;;10110064;29;20244;-84
2023/03/11 03:41:47;;;;;;;26.57;17.60;;;6.50;99.90;;;;;;10101153;29;20272;-84
2023/03/11 03:46:50;;;;;;;26.37;15.83;;;5.70;99.90;;;;;;10105841;29;20323;-84
2023/03/11 03:51:53;;;;;;;20.53;13.47;;;5.40;99.90;;;;;;10116692;29;20244;-84
2023/03/11 03:57:04;;;;;;;18.60;11.10;;;4.90;99.90;;;;;;10122609;29;20245;-83
2023/03/11 04:02:13;;;;;;;15.93;9.80;;;4.30;99.90;;;;;;10104694;29;20289;-84
2023/03/11 04:07:16;;;;;;;16.20;8.67;;;4.00;99.90;;;;;;10109588;29;20232;-84
2023/03/11 04:12:19;;;;;;;14.60;8.60;;;3.50;99.90;;;;;;10103550;29;20256;-84
2023/03/11 04:17:22;;;;;;;11.90;7.53;;;3.40;99.90;;;;;;10110298;29;20268;-84
2023/03/11 04:22:26;;;;;;;6.93;5.13;;;3.30;99.90;;;;;;10116667;29;20808;-84
2023/03/11 04:27:29;;;;;;;7.60;4.87;;;2.90;99.90;;;;;;10107819;29;20240;-84
2023/03/11 04:32:33;;;;;;;7.07;4.20;;;2.80;99.90;;;;;;10103662;29;20240;-84
2023/03/11 04:37:38;;;;;;;7.17;4.90;;;2.60;99.90;;;;;;10111636;29;20303;-84
2023/03/11 04:42:41;;;;;;;6.17;4.67;;;2.60;99.90;;;;;;10112811;29;20263;-84
2023/03/11 04:47:47;;;;;;;9.27;5.60;;;2.90;99.90;;;;;;10116301;29;20240;-83
2023/03/11 04:52:50;;;;;;;8.40;5.10;;;2.50;99.90;;;;;;10107365;29;20296;-84
2023/03/11 04:57:53;;;;;;;6.13;4.27;;;2.90;99.90;;;;;;10103006;29;20277;-84
2023/03/11 05:02:56;;;;;;;4.83;3.73;;;3.20;99.90;;;;;;10101970;29;20260;-84
2023/03/11 05:07:59;;;;;;;3.30;3.00;;;2.50;99.90;;;;;;10104986;29;20296;-84
2023/03/11 05:13:04;;;;;;;3.43;2.77;;;2.40;99.90;;;;;;10104208;29;20240;-84
2023/03/11 05:18:10;;;;;;;3.73;3.13;;;2.10;99.90;;;;;;10094564;29;20730;-83
2023/03/11 05:23:13;;;;;;;4.77;4.27;;;1.90;99.90;;;;;;10098936;29;20320;-83
2023/03/11 05:28:16;;;;;;;3.77;2.90;;;2.30;99.90;;;;;;10123275;29;20287;-83
2023/03/11 05:33:24;;;;;;;4.90;3.07;;;2.00;99.90;;;;;;10109281;29;20248;-83
2023/03/11 05:38:28;;;;;;;3.47;2.77;;;1.90;99.90;;;;;;10105952;29;20309;-83
2023/03/11 05:43:31;;;;;;;4.97;3.43;;;1.50;99.90;;;;;;10103016;29;20260;-83
2023/03/11 05:48:35;;;;;;;7.33;4.47;;;1.60;99.90;;;;;;10115583;29;20264;-83
2023/03/11 05:53:40;;;;;;;5.33;4.30;;;1.30;99.90;;;;;;10102667;29;20769;-83
2023/03/11 05:58:44;;;;;;;5.60;5.00;;;1.60;99.90;;;;;;10107890;29;20240;-83
2023/03/11 06:03:47;;;;;;;6.17;4.80;;;1.80;99.90;;;;;;10111850;29;20325;-83
2023/03/11 06:08:50;;;;;;;9.60;7.73;;;1.40;99.90;;;;;;10099372;29;20282;-83
2023/03/11 06:13:56;;;;;;;9.27;7.27;;;2.70;99.90;;;;;;10121037;29;20236;-83
2023/03/11 06:19:01;;;;;;;7.57;6.60;;;2.10;99.90;;;;;;10115911;29;20685;-83
2023/03/11 06:24:08;;;;;;;10.73;8.27;;;1.40;99.90;;;;;;10115717;29;20760;-83
2023/03/11 06:29:13;;;;;;;7.23;6.30;;;1.70;99.90;;;;;;10108153;29;20293;-83
2023/03/11 06:34:17;;;;;;;6.93;4.63;;;1.60;99.90;;;;;;10102564;29;20755;-83
2023/03/11 06:39:21;;;;;;;6.33;5.63;;;1.90;99.90;;;;;;10112042;29;20263;-83
2023/03/11 06:44:25;;;;;;;5.73;5.03;;;1.90;99.90;;;;;;10118118;29;20271;-83
2023/03/11 06:49:28;;;;;;;6.10;4.80;;;1.50;99.90;;;;;;10111344;29;20266;-83
2023/03/11 06:54:31;;;;;;;6.57;5.03;;;1.60;99.90;;;;;;10108893;29;20757;-83
2023/03/11 06:59:34;;;;;;;5.70;4.13;;;1.60;99.90;;;;;;10100312;29;20248;-83
2023/03/11 07:04:37;;;;;;;6.03;5.20;;;1.60;99.90;;;;;;10133081;29;21029;-83
2023/03/11 07:09:40;;;;;;;6.27;5.13;;;1.90;99.90;;;;;;10125263;29;20327;-83
2023/03/11 07:14:45;;;;;;;6.37;5.70;;;2.50;99.90;;;;;;10115193;29;20240;-83
2023/03/11 07:19:48;;;;;;;5.70;4.60;;;2.00;99.90;;;;;;10110057;29;20276;-83
2023/03/11 07:24:51;;;;;;;6.50;5.50;;;1.70;99.90;;;;;;10100502;29;20272;-83
2023/03/11 07:29:53;;;;;;;7.73;5.47;;;1.80;99.90;;;;;;10117452;29;20236;-83
2023/03/11 07:34:56;;;;;;;7.40;6.00;;;1.70;99.90;;;;;;10101799;29;20269;-83
2023/03/11 07:39:58;;;;;;;6.10;5.37;;;2.70;99.90;;;;;;10088750;29;20312;-83
2023/03/11 07:45:01;;;;;;;62.17;14.13;;;2.00;99.90;;;;;;10062032;29;20277;-83
2023/03/11 07:50:04;;;;;;;6.60;6.00;;;2.80;99.90;;;;;;10080506;29;20240;-83
2023/03/11 07:55:07;;;;;;;6.80;5.17;;;2.50;99.90;;;;;;10092244;29;20249;-83
2023/03/11 08:00:11;;;;;;;5.47;4.93;;;1.70;99.90;;;;;;10090528;29;20269;-83
2023/03/11 08:05:13;;;;;;;7.17;6.47;;;1.80;99.90;;;;;;10061229;29;20660;-83
2023/03/11 08:10:16;;;;;;;10.50;6.80;;;2.30;99.90;;;;;;10081429;29;20253;-83
2023/03/11 08:15:19;;;;;;;5.90;5.23;;;2.20;99.90;;;;;;10089488;29;20257;-83
2023/03/11 08:20:21;;;;;;;5.73;5.07;;;1.90;99.90;;;;;;10067944;29;20339;-83
2023/03/11 08:25:24;;;;;;;13.97;10.93;;;1.60;99.90;;;;;;10081929;29;20351;-83
2023/03/11 08:30:27;;;;;;;7.67;6.80;;;2.90;99.90;;;;;;10072412;29;20242;-83
2023/03/11 08:35:31;;;;;;;5.53;2.73;;;2.90;99.90;;;;;;10065460;29;20695;-84
2023/03/11 08:40:33;;;;;;;5.93;5.27;;;3.00;99.90;;;;;;10079606;29;20697;-84
2023/03/11 08:45:39;;;;;;;6.83;5.83;;;2.60;99.90;;;;;;10073809;29;20340;-83
2023/03/11 08:50:42;;;;;;;7.63;5.10;;;2.70;99.90;;;;;;10085023;29;20301;-83
2023/03/11 08:55:56;;;;;;;9.13;6.00;;;3.10;99.90;;;;;;10067570;29;20261;-82
2023/03/11 09:00:58;;;;;;;8.70;7.23;;;4.30;99.90;;;;;;10077174;29;20249;-83
2023/03/11 09:06:07;;;;;;;5.10;4.60;;;3.20;99.90;;;;;;10080065;29;20268;-83
2023/03/11 09:11:12;;;;;;;5.73;4.23;;;2.60;99.90;;;;;;10081225;29;20278;-83
2023/03/11 09:16:18;;;;;;;5.10;3.90;;;2.00;99.90;;;;;;10058978;29;20245;-84
2023/03/11 09:21:21;;;;;;;4.27;3.40;;;2.90;99.90;;;;;;10075021;29;20245;-84
2023/03/11 09:26:23;;;;;;;5.90;4.43;;;2.70;99.90;;;;;;10070611;29;20317;-84
2023/03/11 09:31:26;;;;;;;4.93;3.63;;;3.00;99.90;;;;;;10066619;29;20273;-83
2023/03/11 09:36:29;;;;;;;5.00;4.10;;;3.40;99.90;;;;;;9411591;29;10000690;-84
2023/03/11 09:41:54;;;;;;;4.87;4.13;;;3.10;99.90;;;;;;10073773;29;20252;-85
2023/03/11 09:47:19;;;;;;;6.53;4.83;;;3.20;99.90;;;;;;10064939;29;20353;-84
2023/03/11 09:52:32;;;;;;;6.03;4.00;;;3.20;99.90;;;;;;10072582;29;20684;-84
2023/03/11 09:57:37;;;;;;;4.87;3.80;;;3.00;99.90;;;;;;10078833;29;20711;-84
2023/03/11 10:02:40;;;;;;;2.87;2.57;;;3.10;99.90;;;;;;10075776;29;20278;-84
2023/03/11 10:07:48;;;;;;;4.17;3.77;;;3.60;99.90;;;;;;10070689;29;20237;-84
2023/03/11 10:13:05;;;;;;;5.70;3.67;;;3.30;99.90;;;;;;10080991;29;20241;-83
2023/03/11 10:18:37;;;;;;;6.97;5.83;;;2.60;99.90;;;;;;10074533;29;20268;-84
2023/03/11 10:24:11;;;;;;;4.73;3.40;;;3.40;99.90;;;;;;10085098;29;20269;-84
2023/03/11 10:29:37;;;;;;;4.73;3.90;;;2.70;99.90;;;;;;10081694;29;20253;-84
2023/03/11 10:34:48;;;;;;;5.17;4.40;;;2.20;99.90;;;;;;10085541;29;20300;-84
2023/03/11 10:39:51;;;;;;;4.70;4.17;;;2.70;99.90;;;;;;10085456;29;20249;-84
2023/03/11 10:44:53;;;;;;;5.53;4.43;;;3.20;99.90;;;;;;10076682;29;20273;-84
2023/03/11 10:49:56;;;;;;;6.30;4.50;;;3.20;99.90;;;;;;10075224;29;20314;-83
2023/03/11 10:55:01;;;;;;;9.73;6.50;;;2.80;99.90;;;;;;10089291;29;20274;-84
2023/03/11 11:00:15;;;;;;;18.23;10.20;;;4.20;99.90;;;;;;10091789;29;20244;-83
2023/03/11 11:05:21;;;;;;;8.23;6.03;;;5.90;99.90;;;;;;10080078;29;20316;-84
2023/03/11 11:10:26;;;;;;;5.60;5.10;;;5.80;99.90;;;;;;10077359;29;20698;-84
2023/03/11 11:15:34;;;;;;;5.40;4.90;;;6.30;99.90;;;;;;10078003;29;20288;-84
2023/03/11 11:20:40;;;;;;;4.83;4.27;;;5.40;99.90;;;;;;10082288;29;20777;-84
2023/03/11 11:25:57;;;;;;;4.13;3.17;;;6.70;99.90;;;;;;10079980;29;20332;-84
2023/03/11 11:31:03;;;;;;;9.80;6.00;;;8.40;99.90;;;;;;10075140;29;20262;-84
2023/03/11 11:36:13;;;;;;;7.43;4.00;;;6.60;99.90;;;;;;10081420;29;20240;-84
2023/03/11 11:41:19;;;;;;;4.03;3.30;;;6.70;99.90;;;;;;10085932;29;20680;-85
2023/03/11 11:46:33;;;;;;;7.30;4.77;;;8.40;99.90;;;;;;10078606;29;20318;-84
2023/03/11 11:51:46;;;;;;;10.67;5.93;;;6.20;99.90;;;;;;10082773;29;20766;-84
2023/03/11 11:56:48;;;;;;;5.80;4.50;;;6.90;99.90;;;;;;10072662;29;20662;-83
2023/03/11 12:02:01;;;;;;;3.53;3.20;;;8.60;99.90;;;;;;10076447;29;20249;-83
2023/03/11 12:07:34;;;;;;;7.17;4.30;;;8.00;99.90;;;;;;10088812;29;20272;-88
2023/03/11 12:12:49;;;;;;;5.40;3.80;;;8.40;99.90;;;;;;10091005;29;21086;-88
2023/03/11 12:17:58;;;;;;;8.27;3.50;;;4.70;99.90;;;;;;10091660;29;20302;-88
2023/03/11 12:23:36;;;;;;;4.20;2.83;;;5.40;99.90;;;;;;10090536;29;20245;-88
2023/03/11 12:29:14;;;;;;;4.70;3.63;;;4.80;99.90;;;;;;9972181;29;20805;-88
2023/03/11 12:34:20;;;;;;;4.73;3.13;;;4.50;99.90;;;;;;9950326;29;20403;-87
2023/03/11 12:39:23;;;;;;;4.57;2.20;;;4.60;99.90;;;;;;9972240;29;20258;-88
2023/03/11 12:44:28;;;;;;;3.33;2.40;;;5.70;99.90;;;;;;9971811;29;20300;-88
2023/03/11 12:49:45;;;;;;;3.20;2.07;;;3.90;99.90;;;;;;9956557;29;20251;-88
2023/03/11 12:55:17;;;;;;;4.43;2.47;;;3.40;99.90;;;;;;9971371;29;20314;-89
2023/03/11 13:00:59;;;;;;;3.33;1.73;;;3.40;99.90;;;;;;9956921;29;20249;-88
2023/03/11 13:06:18;;;;;;;5.10;2.83;;;4.00;99.90;;;;;;10106386;29;20275;-88
2023/03/11 13:11:33;;;;;;;3.50;2.73;;;5.00;99.90;;;;;;10127219;29;20287;-88
2023/03/11 13:16:37;;;;;;;3.40;2.40;;;4.10;99.90;;;;;;10128300;29;20327;-88
2023/03/11 13:21:41;;;;;;;3.63;2.83;;;3.80;99.90;;;;;;10127405;29;20252;-88
2023/03/11 13:26:58;;;;;;;3.70;2.80;;;4.30;99.90;;;;;;10127043;29;20346;-88
2023/03/11 13:32:26;;;;;;;7.37;2.60;;;4.60;99.90;;;;;;10128081;29;20255;-88
2023/03/11 13:37:36;;;;;;;3.43;3.13;;;3.50;99.90;;;;;;10046333;29;20249;-88
2023/03/11 13:42:46;;;;;;;5.07;3.03;;;3.20;99.90;;;;;;10030217;29;20348;-88
2023/03/11 13:47:50;;;;;;;4.73;3.33;;;4.10;99.90;;;;;;10053090;29;20289;-88
2023/03/11 13:52:54;;;;;;;6.47;2.97;;;4.00;99.90;;;;;;10053741;29;20271;-88
2023/03/11 13:57:57;;;;;;;4.70;3.10;;;4.10;99.90;;;;;;10053648;29;20767;-88
2023/03/11 14:03:03;;;;;;;3.40;2.23;;;4.50;99.90;;;;;;10053348;29;20680;-89
2023/03/11 14:08:25;;;;;;;4.43;3.13;;;6.10;99.90;;;;;;10053050;29;20740;-88
2023/03/11 14:13:52;;;;;;;13.50;7.63;;;6.80;99.90;;;;;;10096296;29;20304;-89
2023/03/11 14:19:15;;;;;;;7.43;4.60;;;6.00;99.90;;;;;;10125806;29;20661;-89
2023/03/11 14:24:28;;;;;;;4.30;2.13;;;4.60;99.50;;;;;;10134558;29;20272;-89
2023/03/11 14:29:39;;;;;;;6.53;4.43;;;4.40;99.90;;;;;;10133536;29;20255;-89
2023/03/11 14:34:41;;;;;;;6.00;3.20;;;4.80;99.90;;;;;;10064150;29;20637;-89
2023/03/11 14:39:44;;;;;;;8.87;5.00;;;6.00;99.90;;;;;;10093927;29;20270;-90
2023/03/11 14:45:03;;;;;;;12.43;5.27;;;5.60;95.60;;;;;;10095041;29;20661;-89
2023/03/11 14:50:20;;;;;;;2.17;1.93;;;4.50;97.90;;;;;;10095426;29;20244;-89
2023/03/11 14:55:29;;;;;;;3.13;1.87;;;4.20;99.90;;;;;;10093049;29;20308;-89
2023/03/11 15:00:38;;;;;;;2.83;2.37;;;8.00;99.90;;;;;;10094772;29;20266;-89
2023/03/11 15:05:41;;;;;;;2.73;1.97;;;8.20;92.80;;;;;;10092419;29;20268;-89
2023/03/11 15:11:07;;;;;;;2.70;1.77;;;9.10;88.60;;;;;;10091863;29;20266;-89
2023/03/11 15:16:33;;;;;;;2.70;2.23;;;8.40;99.90;;;;;;10094332;29;20249;-88
2023/03/11 15:21:36;;;;;;;2.97;2.63;;;6.50;99.90;;;;;;10093582;29;20254;-89
2023/03/11 15:26:40;;;;;;;5.20;3.27;;;7.60;99.90;;;;;;10091426;29;20337;-89
2023/03/11 15:31:45;;;;;;;8.17;3.83;;;6.40;94.80;;;;;;10091925;29;20237;-89
2023/03/11 15:36:48;;;;;;;4.33;2.80;;;6.10;94.60;;;;;;10093046;29;20245;-89
2023/03/11 15:42:02;;;;;;;5.13;3.10;;;5.30;99.90;;;;;;10092663;29;20948;-89
2023/03/11 15:47:10;;;;;;;3.60;2.53;;;5.70;99.90;;;;;;10090652;29;20659;-89
2023/03/11 15:52:14;;;;;;;7.70;3.87;;;7.80;99.90;;;;;;10093070;29;20297;-90
2023/03/11 15:57:26;;;;;;;6.13;2.90;;;8.20;99.90;;;;;;10092161;29;20256;-89
2023/03/11 16:02:30;;;;;;;4.53;3.07;;;8.70;99.90;;;;;;10091660;29;20399;-89
2023/03/11 16:07:33;;;;;;;4.00;3.00;;;8.00;99.90;;;;;;10090926;29;20731;-90
2023/03/11 16:12:41;;;;;;;7.93;4.93;;;7.50;99.90;;;;;;10097277;29;20254;-89
2023/03/11 16:17:44;;;;;;;4.30;3.57;;;6.90;98.10;;;;;;10128028;29;20277;-90
2023/03/11 16:22:53;;;;;;;6.13;3.63;;;6.80;99.90;;;;;;10129135;29;20928;-89
2023/03/11 16:27:56;;;;;;;5.03;3.20;;;7.60;99.90;;;;;;10128969;29;20338;-89
2023/03/11 16:32:59;;;;;;;4.10;3.00;;;7.90;99.90;;;;;;10127661;29;20690;-89
2023/03/11 16:38:07;;;;;;;5.80;4.20;;;8.40;99.90;;;;;;10109258;29;20263;-88
2023/03/11 16:43:12;;;;;;;9.23;4.67;;;8.70;99.50;;;;;;10080877;29;20249;-87
2023/03/11 16:48:14;;;;;;;8.90;5.83;;;9.60;97.30;;;;;;10063992;29;20259;-87
2023/03/11 16:53:17;;;;;;;7.23;4.80;;;9.40;94.10;;;;;;10079369;29;20245;-87
2023/03/11 16:58:20;;;;;;;8.23;4.80;;;8.40;96.10;;;;;;10073109;29;20266;-87
2023/03/11 17:03:23;;;;;;;7.50;5.07;;;9.00;99.90;;;;;;10106709;29;20237;-87
2023/03/11 17:08:27;;;;;;;9.20;4.97;;;9.00;99.90;;;;;;10086733;29;20334;-86
2023/03/11 17:13:30;;;;;;;6.93;5.17;;;8.30;99.90;;;;;;10087492;29;21060;-86
2023/03/11 17:18:32;;;;;;;12.60;5.80;;;8.50;99.90;;;;;;10075138;29;20652;-86
2023/03/11 17:23:35;;;;;;;7.77;4.80;;;8.40;99.90;;;;;;10086801;29;20252;-87
2023/03/11 17:28:41;;;;;;;14.20;7.03;;;8.70;99.90;;;;;;10081175;29;20387;-87
2023/03/11 17:33:44;;;;;;;9.50;6.30;;;9.00;99.90;;;;;;10083695;29;20772;-87
2023/03/11 17:38:46;;;;;;;7.33;4.10;;;8.90;99.90;;;;;;10087666;29;20374;-87
2023/03/11 17:43:49;;;;;;;8.23;5.10;;;8.80;99.90;;;;;;10074242;29;20299;-87
2023/03/11 17:48:53;;;;;;;20.10;11.53;;;8.70;99.90;;;;;;10088279;29;20299;-83
2023/03/11 17:53:56;;;;;;;17.80;12.80;;;6.00;93.00;;;;;;10065724;29;20297;-83
2023/03/11 17:58:59;;;;;;;14.30;9.53;;;3.30;99.90;;;;;;10085264;29;20249;-83
2023/03/11 18:04:01;;;;;;;15.53;10.07;;;1.90;99.90;;;;;;10087943;29;20245;-83
2023/03/11 18:09:04;;;;;;;7.77;5.10;;;1.60;99.90;;;;;;10072339;29;20281;-83
2023/03/11 18:14:07;;;;;;;14.63;9.73;;;1.30;99.90;;;;;;10076026;29;20654;-83
2023/03/11 18:19:09;;;;;;;18.87;10.60;;;1.10;99.90;;;;;;10068401;29;20360;-83
2023/03/11 18:24:12;;;;;;;16.00;10.33;;;1.10;99.90;;;;;;10081213;29;20826;-84
2023/03/11 18:29:14;;;;;;;14.10;10.07;;;1.60;99.90;;;;;;10077116;29;20269;-83
2023/03/11 18:34:17;;;;;;;10.57;8.17;;;1.90;99.90;;;;;;10067268;29;20241;-83
2023/03/11 18:39:19;;;;;;;19.77;10.50;;;1.60;99.90;;;;;;10084750;29;21100;-83
2023/03/11 18:44:22;;;;;;;15.53;10.57;;;1.20;99.90;;;;;;10085219;29;20768;-83
2023/03/11 18:49:24;;;;;;;18.20;10.37;;;1.40;99.90;;;;;;9761074;29;10000449;-83
2023/03/11 18:54:27;;;;;;;20.13;10.50;;;1.30;99.90;;;;;;10099750;29;20970;-83
2023/03/11 18:59:30;;;;;;;11.53;7.93;;;0.90;99.90;;;;;;10085659;29;20297;-83
2023/03/11 19:04:33;;;;;;;11.17;7.50;;;1.50;99.90;;;;;;10090898;29;20244;-84
2023/03/11 19:09:35;;;;;;;9.40;6.07;;;1.20;99.90;;;;;;10042684;29;20257;-84
2023/03/11 19:14:38;;;;;;;9.97;7.10;;;1.00;99.90;;;;;;10082831;29;21079;-83
2023/03/11 19:19:41;;;;;;;11.67;7.23;;;0.80;99.90;;;;;;10079429;29;20692;-84
2023/03/11 19:24:43;;;;;;;10.67;6.67;;;0.30;99.90;;;;;;10063860;29;20714;-84
2023/03/11 19:29:46;;;;;;;11.03;7.57;;;0.30;99.90;;;;;;10069228;29;20236;-84
2023/03/11 19:34:49;;;;;;;9.27;7.07;;;0.50;99.90;;;;;;10076211;29;20269;-84
2023/03/11 19:39:51;;;;;;;15.80;9.97;;;2.50;99.90;;;;;;10081470;29;20244;-84
2023/03/11 19:44:54;;;;;;;17.03;9.20;;;1.20;99.90;;;;;;10067384;29;20308;-84
2023/03/11 19:49:57;;;;;;;16.77;9.77;;;0.60;99.90;;;;;;10072397;29;20234;-84
2023/03/11 19:54:59;;;;;;;13.50;8.17;;;0.40;99.90;;;;;;10088172;29;20253;-84
2023/03/11 20:00:03;;;;;;;14.33;9.30;;;0.20;99.90;;;;;;10079254;29;20766;-84
2023/03/11 20:05:06;;;;;;;14.17;9.57;;;0.40;99.90;;;;;;10083927;29;20317;-85
2023/03/11 20:10:09;;;;;;;14.37;9.03;;;0.30;99.90;;;;;;10070415;29;20238;-83
2023/03/11 20:15:12;;;;;;;14.10;6.73;;;0.10;99.90;;;;;;10070425;29;20249;-84
2023/03/11 20:20:15;;;;;;;11.43;7.33;;;0.20;99.90;;;;;;10061676;29;20265;-84
2023/03/11 20:25:17;;;;;;;9.37;7.10;;;1.00;99.90;;;;;;10067350;29;20295;-84
2023/03/11 20:30:20;;;;;;;11.20;7.77;;;1.50;99.90;;;;;;10090415;29;20245;-83
2023/03/11 20:35:23;;;;;;;9.53;6.33;;;1.20;99.90;;;;;;10089413;29;20300;-83
2023/03/11 20:40:26;;;;;;;9.33;6.67;;;2.20;99.90;;;;;;10089665;29;20703;-84
2023/03/11 20:45:29;;;;;;;12.50;7.43;;;2.50;99.90;;;;;;10090640;29;20272;-84
2023/03/11 20:50:31;;;;;;;9.87;6.53;;;2.20;99.90;;;;;;10090448;29;20263;-84
2023/03/11 20:55:34;;;;;;;9.27;5.73;;;1.60;99.90;;;;;;10090314;29;20714;-84
2023/03/11 21:00:36;;;;;;;9.93;6.63;;;2.40;99.90;;;;;;10072034;29;20237;-84
2023/03/11 21:05:40;;;;;;;9.17;6.30;;;2.60;99.90;;;;;;9743165;29;9999766;-84
2023/03/11 21:10:42;;;;;;;11.37;7.17;;;4.20;99.90;;;;;;10092471;29;20238;-84
2023/03/11 21:15:45;;;;;;;10.87;6.40;;;5.60;99.90;;;;;;10101877;29;20232;-84
2023/03/11 21:20:48;;;;;;;12.27;7.83;;;3.50;99.90;;;;;;10097660;29;20269;-84
2023/03/11 21:26:01;;;;;;;7.47;5.80;;;3.30;99.90;;;;;;10083868;29;20260;-84
2023/03/11 21:31:06;;;;;;;9.47;6.40;;;3.00;99.90;;;;;;10097691;29;20266;-84
2023/03/11 21:36:11;;;;;;;7.23;5.23;;;2.40;99.90;;;;;;10096752;29;20694;-84
2023/03/11 21:41:25;;;;;;;9.17;6.43;;;3.10;99.90;;;;;;10098451;29;20992;-84
2023/03/11 21:46:30;;;;;;;11.57;5.50;;;2.70;99.90;;;;;;10092687;29;20742;-84
2023/03/11 21:51:33;;;;;;;8.27;6.03;;;3.60;99.90;;;;;;10097649;29;20657;-84
2023/03/11 21:56:35;;;;;;;8.17;5.43;;;3.10;99.90;;;;;;10100160;29;20250;-85
2023/03/11 22:01:38;;;;;;;7.53;5.20;;;3.00;99.90;;;;;;10072253;29;22487;-84
2023/03/11 22:06:41;;;;;;;9.07;5.30;;;2.00;99.90;;;;;;10082972;29;20260;-84
2023/03/11 22:11:43;;;;;;;9.10;5.87;;;2.60;99.90;;;;;;10089214;29;20256;-84
2023/03/11 22:16:46;;;;;;;7.43;5.83;;;2.10;99.90;;;;;;10082935;29;20676;-85
2023/03/11 22:21:49;;;;;;;10.10;5.83;;;3.30;99.90;;;;;;10077202;29;20282;-84
2023/03/11 22:26:51;;;;;;;6.87;5.97;;;4.00;99.90;;;;;;10077143;29;20264;-85
2023/03/11 22:31:54;;;;;;;8.97;5.70;;;4.60;99.90;;;;;;10078892;29;20244;-84
2023/03/11 22:36:57;;;;;;;9.70;6.27;;;4.20;99.90;;;;;;10082526;29;20245;-84
2023/03/11 22:42:00;;;;;;;6.27;5.10;;;5.00;99.90;;;;;;10075256;29;20254;-84
2023/03/11 22:47:03;;;;;;;8.17;6.13;;;4.30;99.90;;;;;;10079098;29;20266;-85
2023/03/11 22:52:07;;;;;;;7.00;4.73;;;3.50;99.90;;;;;;10088780;29;20302;-86
2023/03/11 22:57:09;;;;;;;6.10;4.83;;;4.80;99.90;;;;;;10083494;29;20299;-85
2023/03/11 23:02:12;;;;;;;9.53;5.50;;;5.20;99.90;;;;;;10079959;29;20710;-85
2023/03/11 23:07:14;;;;;;;6.90;5.00;;;5.60;99.90;;;;;;10089846;29;20256;-85
2023/03/11 23:12:17;;;;;;;6.37;5.17;;;6.00;99.90;;;;;;10079987;29;20250;-85
2023/03/11 23:17:20;;;;;;;8.47;5.50;;;5.70;99.90;;;;;;10073315;29;20659;-85
2023/03/11 23:22:23;;;;;;;6.00;4.67;;;5.30;99.90;;;;;;10083256;29;20269;-85
2023/03/11 23:27:27;;;;;;;7.80;5.10;;;5.70;99.90;;;;;;10052979;29;20754;-85
2023/03/11 23:32:30;;;;;;;7.87;5.50;;;6.40;99.90;;;;;;10078690;29;20741;-86
2023/03/11 23:37:33;;;;;;;7.80;4.43;;;6.70;99.90;;;;;;10072401;29;20643;-83
2023/03/11 23:42:35;;;;;;;8.90;5.83;;;6.30;99.90;;;;;;10083734;29;20311;-84
2023/03/11 23:47:38;;;;;;;7.57;5.33;;;5.80;99.90;;;;;;10084468;29;20825;-84
2023/03/11 23:52:41;;;;;;;11.23;6.00;;;5.00;99.90;;;;;;10087739;29;20241;-84
2023/03/11 23:57:43;;;;;;;9.83;4.73;;;5.70;99.90;;;;;;10082480;29;20270;-84
